Blountville, TN

31 10, 2014 06:26 EDT (GMT -0400)
Virginia Highlands | Change Station
CLOSE
Current Station
Airport
Location: Abingdon,
Elevation: 2070 ft
Nearby Weather Stations
Active Advisory: Winter Weather Advisory

Elev 2070 ft 36.69 °N, 82.03 °W | Updated 11 minutes ago

Значителна Облачност
Значителна Облачност
38 °F
Feels Like 38 °F
N
0
Вятър Променлива Вятър from Северен

Днес
High -- | Low -- °F
--% Chance of Precip.
Yesterday
High -- | Low -- °F
Precip. -- инчове
7:51 AM 6:33 PM
Първа четвърт, 54% visible
Атм. налягане 29.95 инчове
Видимост 10.0 мили
Облаци Ясно
Точка на оросяване 35 °F
Влажност 92%
Rainfall 0.00 инчове
Snow Depth Not available.
УВ 0 out of 12
Pollen .20 out of 12
Качество на въздуха Not available.
Flu Activity Not available.
METAR KVJI 311015Z AUTO 00000KT 10SM CLR 03/02 A2995 RMK AO2 T00310019

More Conditions Fewer Conditions

Атм. налягане 29.95 инчове
Видимост 10.0 мили
Облаци Ясно
Точка на оросяване 35 °F
Влажност 92%
Rainfall 0.00 инчове
Snow Depth Not available.
УВ 0 out of 12
Pollen .20 out of 12
Качество на въздуха Not available.
Flu Activity Not available.
METAR KVJI 311015Z AUTO 00000KT 10SM CLR 03/02 A2995 RMK AO2 T00310019

More Conditions Fewer Conditions

10-Day Weather Forecast

Almanac

Астрономия

Oct. 31, 2014 Rise Set
Actual Time
Civil Twilight
Nautical Twilight
Astronomical Twilight
Moon
Length Of Visible Light
Продължителност на деня
Tomorrow will be .
, % of the Moon is Illuminated

Today's Extremes

State Highs State Lows

Community

WunderPhotos

Upload Photos

1,766,580 photos uploaded!

WunderBlogs® & News

Nearby

Качество на въздуха

  Качество на въздуха AQ Index Pollutant
Not available.

Snow Depth

Station Depth Elevation

Earthquake Activity

City Distance Mag. Time & Date
Minimum magnitude displayed is 2.5.

Coastal Water Temperatures

Град Температура

Nearby Weather Stations